sensor_id;sensor_type;location;lat;lon;timestamp;P1;durP1;ratioP1;P2;durP2;ratioP2
11568;SDS011;5840;46.894;15.542;2023-04-03T00:01:46;2.77;;;2.67;;
11568;SDS011;5840;46.894;15.542;2023-04-03T00:04:13;2.63;;;2.53;;
11568;SDS011;5840;46.894;15.542;2023-04-03T00:06:40;3.20;;;3.00;;
11568;SDS011;5840;46.894;15.542;2023-04-03T00:09:08;2.40;;;2.30;;
11568;SDS011;5840;46.894;15.542;2023-04-03T00:11:35;3.00;;;2.80;;
11568;SDS011;5840;46.894;15.542;2023-04-03T00:14:03;2.97;;;2.77;;
11568;SDS011;5840;46.894;15.542;2023-04-03T00:16:30;5.40;;;5.00;;
11568;SDS011;5840;46.894;15.542;2023-04-03T00:18:57;3.40;;;3.20;;
11568;SDS011;5840;46.894;15.542;2023-04-03T00:21:25;2.93;;;2.73;;
11568;SDS011;5840;46.894;15.542;2023-04-03T00:23:52;2.60;;;2.50;;
11568;SDS011;5840;46.894;15.542;2023-04-03T00:26:20;3.50;;;3.30;;
11568;SDS011;5840;46.894;15.542;2023-04-03T00:28:47;3.53;;;3.33;;
11568;SDS011;5840;46.894;15.542;2023-04-03T00:31:14;3.10;;;2.90;;
11568;SDS011;5840;46.894;15.542;2023-04-03T00:33:42;3.00;;;2.80;;
11568;SDS011;5840;46.894;15.542;2023-04-03T00:36:09;2.97;;;2.77;;
11568;SDS011;5840;46.894;15.542;2023-04-03T00:38:37;2.60;;;2.50;;
11568;SDS011;5840;46.894;15.542;2023-04-03T00:41:04;2.63;;;2.47;;
11568;SDS011;5840;46.894;15.542;2023-04-03T00:43:33;2.70;;;2.60;;
11568;SDS011;5840;46.894;15.542;2023-04-03T00:46:00;2.60;;;2.50;;
11568;SDS011;5840;46.894;15.542;2023-04-03T00:48:28;2.90;;;2.80;;
11568;SDS011;5840;46.894;15.542;2023-04-03T00:50:57;3.13;;;2.97;;
11568;SDS011;5840;46.894;15.542;2023-04-03T00:53:26;3.20;;;3.00;;
11568;SDS011;5840;46.894;15.542;2023-04-03T00:55:57;2.70;;;2.60;;
11568;SDS011;5840;46.894;15.542;2023-04-03T00:58:26;2.87;;;2.67;;
11568;SDS011;5840;46.894;15.542;2023-04-03T01:01:02;3.10;;;2.90;;
11568;SDS011;5840;46.894;15.542;2023-04-03T01:03:33;2.77;;;2.67;;
11568;SDS011;5840;46.894;15.542;2023-04-03T01:06:01;2.90;;;2.70;;
11568;SDS011;5840;46.894;15.542;2023-04-03T01:08:28;3.03;;;2.83;;
11568;SDS011;5840;46.894;15.542;2023-04-03T01:10:55;3.00;;;2.83;;
11568;SDS011;5840;46.894;15.542;2023-04-03T01:13:24;3.10;;;2.90;;
11568;SDS011;5840;46.894;15.542;2023-04-03T01:15:54;3.10;;;2.90;;
11568;SDS011;5840;46.894;15.542;2023-04-03T01:18:23;3.20;;;3.00;;
11568;SDS011;5840;46.894;15.542;2023-04-03T01:24:07;2.93;;;2.83;;
11568;SDS011;5840;46.894;15.542;2023-04-03T01:26:44;3.00;;;2.80;;
11568;SDS011;5840;46.894;15.542;2023-04-03T01:29:11;2.97;;;2.77;;
11568;SDS011;5840;46.894;15.542;2023-04-03T01:31:44;3.07;;;2.87;;
11568;SDS011;5840;46.894;15.542;2023-04-03T01:34:13;3.07;;;2.87;;
11568;SDS011;5840;46.894;15.542;2023-04-03T01:36:40;3.10;;;2.90;;
11568;SDS011;5840;46.894;15.542;2023-04-03T01:39:08;3.10;;;2.90;;
11568;SDS011;5840;46.894;15.542;2023-04-03T01:41:35;2.90;;;2.70;;
11568;SDS011;5840;46.894;15.542;2023-04-03T01:44:02;3.30;;;3.10;;
11568;SDS011;5840;46.894;15.542;2023-04-03T01:46:30;3.47;;;2.90;;
11568;SDS011;5840;46.894;15.542;2023-04-03T01:48:59;3.10;;;2.90;;
11568;SDS011;5840;46.894;15.542;2023-04-03T01:51:26;3.17;;;3.07;;
11568;SDS011;5840;46.894;15.542;2023-04-03T01:53:53;3.10;;;2.90;;
11568;SDS011;5840;46.894;15.542;2023-04-03T01:56:20;3.23;;;3.03;;
11568;SDS011;5840;46.894;15.542;2023-04-03T01:58:47;3.60;;;3.30;;
11568;SDS011;5840;46.894;15.542;2023-04-03T02:01:14;3.53;;;3.23;;
11568;SDS011;5840;46.894;15.542;2023-04-03T02:03:41;3.17;;;2.97;;
11568;SDS011;5840;46.894;15.542;2023-04-03T02:06:09;2.80;;;2.70;;
11568;SDS011;5840;46.894;15.542;2023-04-03T02:08:36;3.67;;;3.37;;
11568;SDS011;5840;46.894;15.542;2023-04-03T02:11:03;3.30;;;3.10;;
11568;SDS011;5840;46.894;15.542;2023-04-03T02:13:31;3.20;;;3.00;;
11568;SDS011;5840;46.894;15.542;2023-04-03T02:15:57;3.40;;;3.20;;
11568;SDS011;5840;46.894;15.542;2023-04-03T02:18:25;3.30;;;3.07;;
11568;SDS011;5840;46.894;15.542;2023-04-03T02:20:52;3.20;;;3.00;;
11568;SDS011;5840;46.894;15.542;2023-04-03T02:23:20;3.30;;;3.00;;
11568;SDS011;5840;46.894;15.542;2023-04-03T02:25:47;3.63;;;3.40;;
11568;SDS011;5840;46.894;15.542;2023-04-03T02:28:15;3.07;;;2.87;;
11568;SDS011;5840;46.894;15.542;2023-04-03T02:30:42;3.30;;;3.10;;
11568;SDS011;5840;46.894;15.542;2023-04-03T02:33:09;3.40;;;3.20;;
11568;SDS011;5840;46.894;15.542;2023-04-03T02:35:36;3.50;;;3.30;;
11568;SDS011;5840;46.894;15.542;2023-04-03T02:38:03;3.13;;;2.93;;
11568;SDS011;5840;46.894;15.542;2023-04-03T02:40:31;3.03;;;2.93;;
11568;SDS011;5840;46.894;15.542;2023-04-03T02:42:58;3.10;;;2.90;;
11568;SDS011;5840;46.894;15.542;2023-04-03T02:45:25;3.07;;;2.87;;
11568;SDS011;5840;46.894;15.542;2023-04-03T02:47:52;3.07;;;2.87;;
11568;SDS011;5840;46.894;15.542;2023-04-03T02:50:19;3.47;;;3.27;;
11568;SDS011;5840;46.894;15.542;2023-04-03T02:52:46;3.50;;;3.30;;
11568;SDS011;5840;46.894;15.542;2023-04-03T02:55:13;3.33;;;3.13;;
11568;SDS011;5840;46.894;15.542;2023-04-03T02:57:42;2.90;;;2.80;;
11568;SDS011;5840;46.894;15.542;2023-04-03T03:00:10;2.70;;;2.60;;
11568;SDS011;5840;46.894;15.542;2023-04-03T03:02:37;3.10;;;2.80;;
11568;SDS011;5840;46.894;15.542;2023-04-03T03:05:04;2.70;;;2.50;;
11568;SDS011;5840;46.894;15.542;2023-04-03T03:07:32;3.00;;;2.80;;
11568;SDS011;5840;46.894;15.542;2023-04-03T03:09:59;2.83;;;2.63;;
11568;SDS011;5840;46.894;15.542;2023-04-03T03:12:26;3.10;;;2.90;;
11568;SDS011;5840;46.894;15.542;2023-04-03T03:14:54;3.10;;;2.90;;
11568;SDS011;5840;46.894;15.542;2023-04-03T03:17:21;2.93;;;2.77;;
11568;SDS011;5840;46.894;15.542;2023-04-03T03:19:48;2.80;;;2.70;;
11568;SDS011;5840;46.894;15.542;2023-04-03T03:22:15;2.83;;;2.73;;
11568;SDS011;5840;46.894;15.542;2023-04-03T03:24:43;2.60;;;2.50;;
11568;SDS011;5840;46.894;15.542;2023-04-03T03:27:10;2.87;;;2.70;;
11568;SDS011;5840;46.894;15.542;2023-04-03T03:29:37;2.80;;;2.60;;
11568;SDS011;5840;46.894;15.542;2023-04-03T03:32:06;3.20;;;3.00;;
11568;SDS011;5840;46.894;15.542;2023-04-03T03:34:32;2.90;;;2.70;;
11568;SDS011;5840;46.894;15.542;2023-04-03T03:36:59;3.20;;;3.00;;
11568;SDS011;5840;46.894;15.542;2023-04-03T03:39:26;2.57;;;2.47;;
11568;SDS011;5840;46.894;15.542;2023-04-03T03:41:54;2.87;;;2.77;;
11568;SDS011;5840;46.894;15.542;2023-04-03T03:44:22;2.87;;;2.67;;
11568;SDS011;5840;46.894;15.542;2023-04-03T03:46:49;2.70;;;2.60;;
11568;SDS011;5840;46.894;15.542;2023-04-03T03:49:17;2.83;;;2.73;;
11568;SDS011;5840;46.894;15.542;2023-04-03T03:51:44;2.83;;;2.63;;
11568;SDS011;5840;46.894;15.542;2023-04-03T03:54:12;2.97;;;2.80;;
11568;SDS011;5840;46.894;15.542;2023-04-03T03:56:39;2.63;;;2.53;;
11568;SDS011;5840;46.894;15.542;2023-04-03T03:59:06;2.80;;;2.67;;
11568;SDS011;5840;46.894;15.542;2023-04-03T04:01:33;2.50;;;2.40;;
11568;SDS011;5840;46.894;15.542;2023-04-03T04:04:00;2.97;;;2.77;;
11568;SDS011;5840;46.894;15.542;2023-04-03T04:06:28;2.90;;;2.70;;
11568;SDS011;5840;46.894;15.542;2023-04-03T04:08:55;2.50;;;2.40;;
11568;SDS011;5840;46.894;15.542;2023-04-03T04:11:22;2.77;;;2.63;;
11568;SDS011;5840;46.894;15.542;2023-04-03T04:13:50;2.70;;;2.60;;
11568;SDS011;5840;46.894;15.542;2023-04-03T04:16:16;3.10;;;2.90;;
11568;SDS011;5840;46.894;15.542;2023-04-03T04:18:43;3.03;;;2.83;;
11568;SDS011;5840;46.894;15.542;2023-04-03T04:21:10;2.60;;;2.40;;
11568;SDS011;5840;46.894;15.542;2023-04-03T04:23:39;2.83;;;2.63;;
11568;SDS011;5840;46.894;15.542;2023-04-03T04:26:06;2.40;;;2.30;;
11568;SDS011;5840;46.894;15.542;2023-04-03T04:28:33;2.50;;;2.40;;
11568;SDS011;5840;46.894;15.542;2023-04-03T04:31:00;2.53;;;2.43;;
11568;SDS011;5840;46.894;15.542;2023-04-03T04:33:26;2.40;;;2.30;;
11568;SDS011;5840;46.894;15.542;2023-04-03T04:35:53;3.10;;;2.90;;
11568;SDS011;5840;46.894;15.542;2023-04-03T04:38:21;2.57;;;2.47;;
11568;SDS011;5840;46.894;15.542;2023-04-03T04:40:49;3.07;;;2.87;;
11568;SDS011;5840;46.894;15.542;2023-04-03T04:43:16;2.80;;;2.60;;
11568;SDS011;5840;46.894;15.542;2023-04-03T04:45:43;3.07;;;2.87;;
11568;SDS011;5840;46.894;15.542;2023-04-03T04:48:10;2.60;;;2.40;;
11568;SDS011;5840;46.894;15.542;2023-04-03T04:50:37;2.63;;;2.53;;
11568;SDS011;5840;46.894;15.542;2023-04-03T04:53:04;2.53;;;2.43;;
11568;SDS011;5840;46.894;15.542;2023-04-03T04:55:31;2.40;;;2.30;;
11568;SDS011;5840;46.894;15.542;2023-04-03T04:57:59;2.50;;;2.30;;
11568;SDS011;5840;46.894;15.542;2023-04-03T05:00:26;2.60;;;2.40;;
11568;SDS011;5840;46.894;15.542;2023-04-03T05:02:53;2.63;;;2.53;;
11568;SDS011;5840;46.894;15.542;2023-04-03T05:05:20;2.30;;;2.20;;
11568;SDS011;5840;46.894;15.542;2023-04-03T05:07:48;2.10;;;2.00;;
11568;SDS011;5840;46.894;15.542;2023-04-03T05:10:15;2.50;;;2.40;;
11568;SDS011;5840;46.894;15.542;2023-04-03T05:12:42;2.20;;;2.10;;
11568;SDS011;5840;46.894;15.542;2023-04-03T05:15:11;2.37;;;2.27;;
11568;SDS011;5840;46.894;15.542;2023-04-03T05:17:38;2.20;;;2.10;;
11568;SDS011;5840;46.894;15.542;2023-04-03T05:20:05;2.57;;;2.47;;
11568;SDS011;5840;46.894;15.542;2023-04-03T05:22:33;2.40;;;2.30;;
11568;SDS011;5840;46.894;15.542;2023-04-03T05:25:00;2.50;;;2.40;;
11568;SDS011;5840;46.894;15.542;2023-04-03T05:27:27;2.43;;;2.33;;
11568;SDS011;5840;46.894;15.542;2023-04-03T05:29:54;2.40;;;2.30;;
11568;SDS011;5840;46.894;15.542;2023-04-03T05:32:23;2.20;;;2.10;;
11568;SDS011;5840;46.894;15.542;2023-04-03T05:34:51;2.40;;;2.30;;
11568;SDS011;5840;46.894;15.542;2023-04-03T05:37:19;2.57;;;2.37;;
11568;SDS011;5840;46.894;15.542;2023-04-03T05:39:46;2.57;;;2.37;;
11568;SDS011;5840;46.894;15.542;2023-04-03T05:42:13;2.50;;;2.40;;
11568;SDS011;5840;46.894;15.542;2023-04-03T05:44:40;2.40;;;2.30;;
11568;SDS011;5840;46.894;15.542;2023-04-03T05:47:07;2.20;;;2.10;;
11568;SDS011;5840;46.894;15.542;2023-04-03T05:49:36;2.23;;;2.13;;
11568;SDS011;5840;46.894;15.542;2023-04-03T05:52:05;2.37;;;2.27;;
11568;SDS011;5840;46.894;15.542;2023-04-03T05:54:32;2.00;;;1.90;;
11568;SDS011;5840;46.894;15.542;2023-04-03T05:56:59;2.40;;;2.30;;
11568;SDS011;5840;46.894;15.542;2023-04-03T05:59:26;2.97;;;2.70;;
11568;SDS011;5840;46.894;15.542;2023-04-03T06:01:53;2.30;;;2.20;;
11568;SDS011;5840;46.894;15.542;2023-04-03T06:04:20;2.47;;;2.20;;
11568;SDS011;5840;46.894;15.542;2023-04-03T06:06:50;2.37;;;2.27;;
11568;SDS011;5840;46.894;15.542;2023-04-03T06:09:19;2.57;;;2.10;;
11568;SDS011;5840;46.894;15.542;2023-04-03T06:11:47;2.43;;;2.33;;
11568;SDS011;5840;46.894;15.542;2023-04-03T06:14:14;2.90;;;2.70;;
11568;SDS011;5840;46.894;15.542;2023-04-03T06:16:41;2.90;;;2.70;;
11568;SDS011;5840;46.894;15.542;2023-04-03T06:19:08;2.80;;;2.60;;
11568;SDS011;5840;46.894;15.542;2023-04-03T06:21:36;2.70;;;2.43;;
11568;SDS011;5840;46.894;15.542;2023-04-03T06:24:04;3.23;;;3.00;;
11568;SDS011;5840;46.894;15.542;2023-04-03T06:26:32;3.23;;;2.97;;
11568;SDS011;5840;46.894;15.542;2023-04-03T06:29:00;2.90;;;2.70;;
11568;SDS011;5840;46.894;15.542;2023-04-03T06:31:27;3.07;;;2.87;;
11568;SDS011;5840;46.894;15.542;2023-04-03T06:33:54;3.17;;;2.90;;
11568;SDS011;5840;46.894;15.542;2023-04-03T06:36:21;3.00;;;2.77;;
11568;SDS011;5840;46.894;15.542;2023-04-03T06:38:48;2.73;;;2.53;;
11568;SDS011;5840;46.894;15.542;2023-04-03T06:41:17;3.10;;;2.80;;
11568;SDS011;5840;46.894;15.542;2023-04-03T06:43:44;2.30;;;2.20;;
11568;SDS011;5840;46.894;15.542;2023-04-03T06:46:14;2.53;;;2.43;;
11568;SDS011;5840;46.894;15.542;2023-04-03T06:48:43;2.50;;;2.40;;
11568;SDS011;5840;46.894;15.542;2023-04-03T06:51:16;2.60;;;2.40;;
11568;SDS011;5840;46.894;15.542;2023-04-03T06:53:45;2.40;;;2.30;;
11568;SDS011;5840;46.894;15.542;2023-04-03T06:56:13;2.67;;;2.40;;
11568;SDS011;5840;46.894;15.542;2023-04-03T06:58:41;2.40;;;2.30;;
11568;SDS011;5840;46.894;15.542;2023-04-03T07:01:09;2.13;;;2.03;;
11568;SDS011;5840;46.894;15.542;2023-04-03T07:03:37;2.30;;;2.20;;
11568;SDS011;5840;46.894;15.542;2023-04-03T07:06:04;2.20;;;2.10;;
11568;SDS011;5840;46.894;15.542;2023-04-03T07:08:32;2.53;;;2.43;;
11568;SDS011;5840;46.894;15.542;2023-04-03T07:10:59;2.13;;;2.03;;
11568;SDS011;5840;46.894;15.542;2023-04-03T07:13:27;2.27;;;1.97;;
11568;SDS011;5840;46.894;15.542;2023-04-03T07:15:55;2.20;;;2.10;;
11568;SDS011;5840;46.894;15.542;2023-04-03T07:18:22;2.10;;;2.00;;
11568;SDS011;5840;46.894;15.542;2023-04-03T07:20:49;2.40;;;2.30;;
11568;SDS011;5840;46.894;15.542;2023-04-03T07:23:16;2.40;;;2.30;;
11568;SDS011;5840;46.894;15.542;2023-04-03T07:25:43;2.30;;;2.20;;
11568;SDS011;5840;46.894;15.542;2023-04-03T07:28:11;2.13;;;2.03;;
11568;SDS011;5840;46.894;15.542;2023-04-03T07:30:42;2.10;;;2.00;;
11568;SDS011;5840;46.894;15.542;2023-04-03T07:33:12;2.50;;;2.30;;
11568;SDS011;5840;46.894;15.542;2023-04-03T07:35:40;2.30;;;2.20;;
11568;SDS011;5840;46.894;15.542;2023-04-03T07:38:08;2.30;;;2.10;;
11568;SDS011;5840;46.894;15.542;2023-04-03T07:40:35;2.10;;;2.00;;
11568;SDS011;5840;46.894;15.542;2023-04-03T07:43:02;2.30;;;2.20;;
11568;SDS011;5840;46.894;15.542;2023-04-03T07:45:30;2.07;;;1.97;;
11568;SDS011;5840;46.894;15.542;2023-04-03T07:47:58;1.90;;;1.80;;
11568;SDS011;5840;46.894;15.542;2023-04-03T07:50:26;2.23;;;2.07;;
11568;SDS011;5840;46.894;15.542;2023-04-03T07:52:55;2.40;;;2.20;;
11568;SDS011;5840;46.894;15.542;2023-04-03T07:55:22;2.57;;;2.37;;
11568;SDS011;5840;46.894;15.542;2023-04-03T07:57:49;2.40;;;2.30;;
11568;SDS011;5840;46.894;15.542;2023-04-03T08:00:17;2.73;;;2.53;;
11568;SDS011;5840;46.894;15.542;2023-04-03T08:02:44;2.30;;;2.20;;
11568;SDS011;5840;46.894;15.542;2023-04-03T08:05:15;3.00;;;2.60;;
11568;SDS011;5840;46.894;15.542;2023-04-03T08:07:44;2.70;;;2.50;;
11568;SDS011;5840;46.894;15.542;2023-04-03T08:10:11;2.97;;;2.77;;
11568;SDS011;5840;46.894;15.542;2023-04-03T08:12:39;2.37;;;2.27;;
11568;SDS011;5840;46.894;15.542;2023-04-03T08:15:07;2.40;;;2.30;;
11568;SDS011;5840;46.894;15.542;2023-04-03T08:17:35;2.60;;;2.43;;
11568;SDS011;5840;46.894;15.542;2023-04-03T08:20:02;2.93;;;2.70;;
11568;SDS011;5840;46.894;15.542;2023-04-03T08:22:31;2.60;;;2.40;;
11568;SDS011;5840;46.894;15.542;2023-04-03T08:25:00;2.60;;;2.40;;
11568;SDS011;5840;46.894;15.542;2023-04-03T08:27:27;2.37;;;2.27;;
11568;SDS011;5840;46.894;15.542;2023-04-03T08:29:54;2.50;;;2.40;;
11568;SDS011;5840;46.894;15.542;2023-04-03T08:32:21;2.70;;;2.60;;
11568;SDS011;5840;46.894;15.542;2023-04-03T08:34:49;2.10;;;2.00;;
11568;SDS011;5840;46.894;15.542;2023-04-03T08:37:16;2.60;;;2.40;;
11568;SDS011;5840;46.894;15.542;2023-04-03T08:39:44;2.17;;;2.07;;
11568;SDS011;5840;46.894;15.542;2023-04-03T08:42:16;2.60;;;2.50;;
11568;SDS011;5840;46.894;15.542;2023-04-03T08:44:54;2.13;;;2.03;;
11568;SDS011;5840;46.894;15.542;2023-04-03T08:47:27;2.87;;;2.17;;
11568;SDS011;5840;46.894;15.542;2023-04-03T08:50:03;2.67;;;2.57;;
11568;SDS011;5840;46.894;15.542;2023-04-03T08:52:34;2.60;;;2.50;;
11568;SDS011;5840;46.894;15.542;2023-04-03T08:55:06;2.43;;;2.23;;
11568;SDS011;5840;46.894;15.542;2023-04-03T08:57:43;2.43;;;2.33;;
11568;SDS011;5840;46.894;15.542;2023-04-03T09:00:15;2.20;;;2.00;;
11568;SDS011;5840;46.894;15.542;2023-04-03T09:02:44;2.70;;;2.20;;
11568;SDS011;5840;46.894;15.542;2023-04-03T09:05:14;2.10;;;2.00;;
11568;SDS011;5840;46.894;15.542;2023-04-03T09:07:43;2.40;;;2.30;;
11568;SDS011;5840;46.894;15.542;2023-04-03T09:10:14;2.10;;;2.00;;
11568;SDS011;5840;46.894;15.542;2023-04-03T09:12:44;2.17;;;2.07;;
11568;SDS011;5840;46.894;15.542;2023-04-03T09:15:17;3.07;;;2.00;;
11568;SDS011;5840;46.894;15.542;2023-04-03T09:17:52;2.27;;;2.17;;
11568;SDS011;5840;46.894;15.542;2023-04-03T09:20:27;2.10;;;2.00;;
11568;SDS011;5840;46.894;15.542;2023-04-03T09:23:08;1.90;;;1.80;;
11568;SDS011;5840;46.894;15.542;2023-04-03T09:25:42;2.17;;;2.07;;
11568;SDS011;5840;46.894;15.542;2023-04-03T09:28:12;2.00;;;1.90;;
11568;SDS011;5840;46.894;15.542;2023-04-03T09:30:39;2.10;;;2.00;;
11568;SDS011;5840;46.894;15.542;2023-04-03T09:33:07;1.90;;;1.80;;
11568;SDS011;5840;46.894;15.542;2023-04-03T09:35:36;1.90;;;1.80;;
11568;SDS011;5840;46.894;15.542;2023-04-03T09:38:14;2.00;;;1.90;;
11568;SDS011;5840;46.894;15.542;2023-04-03T09:40:43;2.27;;;2.03;;
11568;SDS011;5840;46.894;15.542;2023-04-03T09:43:23;2.20;;;2.10;;
11568;SDS011;5840;46.894;15.542;2023-04-03T09:45:53;1.80;;;1.70;;
11568;SDS011;5840;46.894;15.542;2023-04-03T09:48:22;1.80;;;1.80;;
11568;SDS011;5840;46.894;15.542;2023-04-03T09:50:54;1.97;;;1.87;;
11568;SDS011;5840;46.894;15.542;2023-04-03T09:53:35;2.20;;;2.10;;
11568;SDS011;5840;46.894;15.542;2023-04-03T09:56:04;2.00;;;1.90;;
11568;SDS011;5840;46.894;15.542;2023-04-03T09:58:47;2.20;;;2.10;;
11568;SDS011;5840;46.894;15.542;2023-04-03T10:01:23;1.97;;;1.87;;
11568;SDS011;5840;46.894;15.542;2023-04-03T10:04:06;2.10;;;2.00;;
11568;SDS011;5840;46.894;15.542;2023-04-03T10:06:36;2.67;;;2.57;;
11568;SDS011;5840;46.894;15.542;2023-04-03T10:09:07;2.10;;;2.00;;
11568;SDS011;5840;46.894;15.542;2023-04-03T10:11:50;2.10;;;2.00;;
11568;SDS011;5840;46.894;15.542;2023-04-03T10:14:27;2.20;;;2.00;;
11568;SDS011;5840;46.894;15.542;2023-04-03T10:16:57;2.10;;;2.00;;
11568;SDS011;5840;46.894;15.542;2023-04-03T10:19:35;2.20;;;2.10;;
11568;SDS011;5840;46.894;15.542;2023-04-03T10:22:10;2.10;;;1.90;;
11568;SDS011;5840;46.894;15.542;2023-04-03T10:24:48;2.20;;;2.00;;
11568;SDS011;5840;46.894;15.542;2023-04-03T10:27:28;2.00;;;1.90;;
11568;SDS011;5840;46.894;15.542;2023-04-03T10:30:07;2.17;;;2.00;;
11568;SDS011;5840;46.894;15.542;2023-04-03T10:32:53;2.00;;;1.90;;
11568;SDS011;5840;46.894;15.542;2023-04-03T10:35:31;2.23;;;2.00;;
11568;SDS011;5840;46.894;15.542;2023-04-03T10:38:07;2.20;;;2.10;;
11568;SDS011;5840;46.894;15.542;2023-04-03T10:40:41;2.10;;;2.00;;
11568;SDS011;5840;46.894;15.542;2023-04-03T10:43:16;1.90;;;1.80;;
11568;SDS011;5840;46.894;15.542;2023-04-03T10:45:55;2.27;;;2.07;;
11568;SDS011;5840;46.894;15.542;2023-04-03T10:48:32;2.30;;;1.87;;
11568;SDS011;5840;46.894;15.542;2023-04-03T10:51:12;1.87;;;1.77;;
11568;SDS011;5840;46.894;15.542;2023-04-03T10:53:49;1.80;;;1.70;;
11568;SDS011;5840;46.894;15.542;2023-04-03T10:56:24;2.00;;;1.90;;
11568;SDS011;5840;46.894;15.542;2023-04-03T10:58:58;2.07;;;1.97;;
11568;SDS011;5840;46.894;15.542;2023-04-03T11:01:36;2.10;;;2.00;;
11568;SDS011;5840;46.894;15.542;2023-04-03T11:04:07;1.53;;;1.53;;
11568;SDS011;5840;46.894;15.542;2023-04-03T11:06:37;1.97;;;1.87;;
11568;SDS011;5840;46.894;15.542;2023-04-03T11:09:07;1.90;;;1.80;;
11568;SDS011;5840;46.894;15.542;2023-04-03T11:11:43;2.10;;;2.00;;
11568;SDS011;5840;46.894;15.542;2023-04-03T11:14:14;1.83;;;1.70;;
11568;SDS011;5840;46.894;15.542;2023-04-03T11:16:49;1.80;;;1.70;;
11568;SDS011;5840;46.894;15.542;2023-04-03T11:19:27;2.20;;;1.97;;
11568;SDS011;5840;46.894;15.542;2023-04-03T11:22:01;3.17;;;1.70;;
11568;SDS011;5840;46.894;15.542;2023-04-03T11:24:34;1.90;;;1.80;;
11568;SDS011;5840;46.894;15.542;2023-04-03T11:27:05;2.20;;;2.10;;
11568;SDS011;5840;46.894;15.542;2023-04-03T11:29:36;1.60;;;1.50;;
11568;SDS011;5840;46.894;15.542;2023-04-03T11:32:14;1.87;;;1.50;;
11568;SDS011;5840;46.894;15.542;2023-04-03T11:34:57;1.90;;;1.80;;
11568;SDS011;5840;46.894;15.542;2023-04-03T11:37:28;1.87;;;1.70;;
11568;SDS011;5840;46.894;15.542;2023-04-03T11:40:02;2.00;;;1.90;;
11568;SDS011;5840;46.894;15.542;2023-04-03T11:42:34;1.70;;;1.60;;
11568;SDS011;5840;46.894;15.542;2023-04-03T11:45:16;1.83;;;1.73;;
11568;SDS011;5840;46.894;15.542;2023-04-03T11:47:58;1.63;;;1.60;;
11568;SDS011;5840;46.894;15.542;2023-04-03T11:50:38;1.80;;;1.60;;
11568;SDS011;5840;46.894;15.542;2023-04-03T11:53:28;2.00;;;1.90;;
11568;SDS011;5840;46.894;15.542;2023-04-03T11:55:58;1.70;;;1.70;;
11568;SDS011;5840;46.894;15.542;2023-04-03T11:58:30;1.97;;;1.80;;
11568;SDS011;5840;46.894;15.542;2023-04-03T12:12:57;1.40;;;1.40;;
11568;SDS011;5840;46.894;15.542;2023-04-03T12:24:25;2.00;;;1.90;;
11568;SDS011;5840;46.894;15.542;2023-04-03T12:27:05;1.73;;;1.67;;
11568;SDS011;5840;46.894;15.542;2023-04-03T12:29:47;1.90;;;1.80;;
11568;SDS011;5840;46.894;15.542;2023-04-03T12:32:24;2.00;;;1.90;;
11568;SDS011;5840;46.894;15.542;2023-04-03T12:35:05;1.90;;;1.80;;
11568;SDS011;5840;46.894;15.542;2023-04-03T12:38:00;1.70;;;1.60;;
11568;SDS011;5840;46.894;15.542;2023-04-03T12:40:50;1.83;;;1.73;;
11568;SDS011;5840;46.894;15.542;2023-04-03T12:43:34;2.00;;;1.90;;
11568;SDS011;5840;46.894;15.542;2023-04-03T12:46:12;1.70;;;1.60;;
11568;SDS011;5840;46.894;15.542;2023-04-03T12:48:46;2.07;;;1.80;;
11568;SDS011;5840;46.894;15.542;2023-04-03T12:51:16;1.93;;;1.83;;
11568;SDS011;5840;46.894;15.542;2023-04-03T12:53:46;1.90;;;1.80;;
11568;SDS011;5840;46.894;15.542;2023-04-03T12:56:19;4.47;;;2.00;;
11568;SDS011;5840;46.894;15.542;2023-04-03T12:58:50;2.07;;;1.90;;
11568;SDS011;5840;46.894;15.542;2023-04-03T13:01:20;2.00;;;1.90;;
11568;SDS011;5840;46.894;15.542;2023-04-03T13:03:49;2.17;;;2.00;;
11568;SDS011;5840;46.894;15.542;2023-04-03T13:06:19;2.33;;;2.23;;
11568;SDS011;5840;46.894;15.542;2023-04-03T13:08:49;1.73;;;1.63;;
11568;SDS011;5840;46.894;15.542;2023-04-03T13:11:17;2.30;;;2.20;;
11568;SDS011;5840;46.894;15.542;2023-04-03T13:13:58;2.00;;;1.90;;
11568;SDS011;5840;46.894;15.542;2023-04-03T13:16:27;2.20;;;2.10;;
11568;SDS011;5840;46.894;15.542;2023-04-03T13:18:54;2.70;;;2.50;;
11568;SDS011;5840;46.894;15.542;2023-04-03T13:21:22;2.40;;;2.30;;
11568;SDS011;5840;46.894;15.542;2023-04-03T13:23:53;2.23;;;2.13;;
11568;SDS011;5840;46.894;15.542;2023-04-03T13:26:22;2.23;;;2.13;;
11568;SDS011;5840;46.894;15.542;2023-04-03T13:28:52;2.17;;;2.07;;
11568;SDS011;5840;46.894;15.542;2023-04-03T13:31:25;2.27;;;2.10;;
11568;SDS011;5840;46.894;15.542;2023-04-03T13:33:55;2.10;;;2.00;;
11568;SDS011;5840;46.894;15.542;2023-04-03T13:36:25;2.53;;;2.07;;
11568;SDS011;5840;46.894;15.542;2023-04-03T13:38:59;2.30;;;2.20;;
11568;SDS011;5840;46.894;15.542;2023-04-03T13:41:29;2.60;;;2.40;;
11568;SDS011;5840;46.894;15.542;2023-04-03T13:46:46;2.30;;;2.20;;
11568;SDS011;5840;46.894;15.542;2023-04-03T13:49:17;2.57;;;2.47;;
11568;SDS011;5840;46.894;15.542;2023-04-03T13:51:46;2.30;;;2.20;;
11568;SDS011;5840;46.894;15.542;2023-04-03T13:54:16;2.40;;;2.20;;
11568;SDS011;5840;46.894;15.542;2023-04-03T13:56:52;2.47;;;2.33;;
11568;SDS011;5840;46.894;15.542;2023-04-03T13:59:22;3.10;;;2.43;;
11568;SDS011;5840;46.894;15.542;2023-04-03T14:01:53;2.70;;;2.20;;
11568;SDS011;5840;46.894;15.542;2023-04-03T14:04:22;2.50;;;2.40;;
11568;SDS011;5840;46.894;15.542;2023-04-03T14:06:50;2.43;;;2.13;;
11568;SDS011;5840;46.894;15.542;2023-04-03T14:09:18;2.40;;;2.20;;
11568;SDS011;5840;46.894;15.542;2023-04-03T14:11:47;2.50;;;2.30;;
11568;SDS011;5840;46.894;15.542;2023-04-03T14:14:16;2.60;;;2.40;;
11568;SDS011;5840;46.894;15.542;2023-04-03T14:16:46;2.40;;;2.30;;
11568;SDS011;5840;46.894;15.542;2023-04-03T14:19:19;2.33;;;2.23;;
11568;SDS011;5840;46.894;15.542;2023-04-03T14:21:48;2.40;;;2.30;;
11568;SDS011;5840;46.894;15.542;2023-04-03T14:24:17;2.77;;;2.50;;
11568;SDS011;5840;46.894;15.542;2023-04-03T14:26:47;2.23;;;2.13;;
11568;SDS011;5840;46.894;15.542;2023-04-03T14:29:14;2.53;;;2.43;;
11568;SDS011;5840;46.894;15.542;2023-04-03T14:31:42;2.50;;;2.40;;
11568;SDS011;5840;46.894;15.542;2023-04-03T14:34:11;2.50;;;2.30;;
11568;SDS011;5840;46.894;15.542;2023-04-03T14:36:40;2.70;;;2.50;;
11568;SDS011;5840;46.894;15.542;2023-04-03T14:39:10;2.63;;;2.43;;
11568;SDS011;5840;46.894;15.542;2023-04-03T14:41:43;2.20;;;2.10;;
11568;SDS011;5840;46.894;15.542;2023-04-03T14:44:10;3.03;;;2.83;;
11568;SDS011;5840;46.894;15.542;2023-04-03T14:46:38;2.83;;;2.50;;
11568;SDS011;5840;46.894;15.542;2023-04-03T14:49:09;3.07;;;2.87;;
11568;SDS011;5840;46.894;15.542;2023-04-03T14:51:42;2.83;;;2.63;;
11568;SDS011;5840;46.894;15.542;2023-04-03T14:54:11;2.53;;;2.43;;
11568;SDS011;5840;46.894;15.542;2023-04-03T14:56:40;2.53;;;2.30;;
11568;SDS011;5840;46.894;15.542;2023-04-03T14:59:09;3.10;;;2.90;;
11568;SDS011;5840;46.894;15.542;2023-04-03T15:01:38;3.10;;;2.90;;
11568;SDS011;5840;46.894;15.542;2023-04-03T15:04:09;2.70;;;2.60;;
11568;SDS011;5840;46.894;15.542;2023-04-03T15:06:38;3.27;;;2.97;;
11568;SDS011;5840;46.894;15.542;2023-04-03T15:09:08;3.63;;;3.03;;
11568;SDS011;5840;46.894;15.542;2023-04-03T15:11:44;2.83;;;2.73;;
11568;SDS011;5840;46.894;15.542;2023-04-03T15:14:11;2.90;;;2.70;;
11568;SDS011;5840;46.894;15.542;2023-04-03T15:16:38;3.00;;;2.70;;
11568;SDS011;5840;46.894;15.542;2023-04-03T15:19:05;3.00;;;2.80;;
11568;SDS011;5840;46.894;15.542;2023-04-03T15:21:32;3.37;;;3.07;;
11568;SDS011;5840;46.894;15.542;2023-04-03T15:23:59;3.50;;;3.30;;
11568;SDS011;5840;46.894;15.542;2023-04-03T15:26:28;2.93;;;2.73;;
11568;SDS011;5840;46.894;15.542;2023-04-03T15:28:56;3.03;;;2.83;;
11568;SDS011;5840;46.894;15.542;2023-04-03T15:31:23;3.00;;;2.80;;